Fort Benton (79S)
Fort Benton, MT
Field Elevation: 2868
Lat: 47°50.71N  Long: 110°38.19W
CTAF/Unicom Freq: 122.8000
   
     For Weather-by-Phone, call 406-622-5976
Weather Advisories
2021-06-12   18:05 Z
Altimeter 29.99" Hg
Wind 260° @ 12 KT
Gusts 16 KT
Visibility 10 SM
Temperature 21° C (70° F)
Dewpoint 3° C (37° F)
Relative Humidity 31%
Density Altitude 4,100 feet
Condensation Altitude 12,000 feet
Wind and Runways
Indicated Runway = 23
Headwind = 10 kt
Crosswind = 6 kt
History
 
 
 
More Info
NOAA Forecast
 
 
About Us
Belfort Instrument
 
 
FAA Disclaimer: The data displayed is for advisory purposes only and is not to be used for flight planning or operations. For official data, please call 406-622-5976 to hear the current automated AWOS voice message.
  METAR 79S 121805Z AUTO 26012G16KT 10 SM 21/03 A2999